CheckWX is a tool to help pilots better visualize weather data.  It is not intended as a substitute for an official pre-flight weather briefing.

02:07:38 UTC

PAUN TAF
Unalakleet Airport
Unalakleet, Alaska, USA
PAUN 140538Z 1406/1506 22004KT P6SM SCT010 FM141800 23006KT P6SM OVC050

Jul-14@
06:00 UTC

Jul-14 @ 06:00 UTC

Jul-14@
18:00 UTC

Jul-14 @ 18:00 UTC

TAF PAUN 140538Z 1406/1506 22004KT P6SM SCT010

Expired

Wind
  • 220° at 4 KTS
Cloud Levels
  • Scattered at 1,000' AGL

Jul-14@
18:00 UTC

Jul-14 @ 18:00 UTC

Jul-15@
06:00 UTC

Jul-15 @ 06:00 UTC

FM141800 23006KT P6SM OVC050

From

From Standard forecast or significant change

Wind
  • 230° at 6 KTS
Cloud Levels
  • Overcast at 5,000' AGL